DNEN

Akanu Ibiam International Airport

Enegu, Nigeria
TAF DNEN 171530Z 1718/1824 18003KT 8000 BKN011 FEW020CB PROB30 TEMPO 1720/1724 TS BKN008 FEW019CB BECMG 1801/1803 SCT008
Issued Valid From Valid To
Oct-17 @ 15:30 UTC
(5 hours ago)
Oct-17 @ 18:00 UTC
(2 hours ago)
Oct-19 @ 00:00 UTC
(-1 days ago)
Oct-17 @ 18:00 to Oct-18 @ 01:00
TAF DNEN 171530Z 1718/1824 18003KT 8000 BKN011 FEW020CB
Wind Visibility Clouds
180° at 3 knots 7,998 meters
  • Broken at 1,100' AGL
  • Few at 2,000' AGL
Temporary  (Probability 30%) Oct-17 @ 20:00 to Oct-18 @ 00:00
PROB30 TEMPO 1720/1724 TS BKN008 FEW019CB
Clouds Conditions
  • Broken at 800' AGL
  • Few at 1,900' AGL
  • Thunderstorm
Becoming Oct-18 @ 01:00 to Oct-19 @ 00:00
BECMG 1801/1803 SCT008
Wind Visibility Clouds
180° at 3 knots 7,998 meters
  • Scattered at 800' AGL
TAF DNEN 171530Z 1718/1824 18003KT 8000 BKN011 FEW020CB PROB30 TEMPO 1720/1724 TS BKN008 FEW019CB BECMG 1801/1803 SCT008
Issued Oct-17 @ 15:30 UTC
(5 hours ago)
Valid From Oct-17 @ 18:00 UTC
(2 hours ago)
Valid To Oct-19 @ 00:00 UTC
(-1 days ago)
Oct-17 @ 18:00 - Oct-18 @ 01:00
Wind Visibility
180° at 3 knots 7,998 meters
Clouds
  • Broken at 1,100' AGL
  • Few at 2,000' AGL
Probability 30% Temporary Oct-17 @ 20:00 - Oct-18 @ 00:00
Clouds
  • Broken at 800' AGL
  • Few at 1,900' AGL
Conditions
  • Thunderstorm
Becoming Oct-18 @ 01:00 - Oct-19 @ 00:00
Wind Visibility
180° at 3 knots 7,998 meters
Clouds
  • Scattered at 800' AGL